CDT,Max TemperatureF,Mean TemperatureF,Min TemperatureF,Max Dew PointF,MeanDew PointF,Min DewpointF,Max Humidity, Mean Humidity, Min Humidity, Max Sea Level PressureIn, Mean Sea Level PressureIn, Min Sea Level PressureIn, Max VisibilityMiles, Mean VisibilityMiles, Min VisibilityMiles, Max Wind SpeedMPH, Mean Wind SpeedMPH, Max Gust SpeedMPH,PrecipitationIn, CloudCover, Events, WindDirDegrees
2013-9-1,75,68,60,70,62,57,100,81,61,29.99,29.88,29.77,10,10,10,16,7,22,0.00,6,Thunderstorm,302
2013-9-2,64,56,48,57,53,48,100,88,68,30.11,30.06,29.99,10,10,10,10,5,,0.00,4,,324
2013-9-3,75,58,42,61,53,43,100,85,53,30.12,30.07,30.03,10,8,0,8,1,,0.00,2,Fog,220
2013-9-4,86,70,55,72,63,55,100,80,58,30.16,30.10,30.04,10,10,10,6,1,,0.00,0,,333
2013-9-5,84,72,60,70,65,57,94,79,58,30.22,30.18,30.13,10,10,10,12,4,,0.00,2,,100
2013-9-6,89,78,66,70,66,64,100,74,46,30.13,30.02,29.90,10,10,7,14,8,24,0.03,1,Rain-Thunderstorm,172
2013-9-7,91,78,66,73,69,64,100,75,52,30.00,29.93,29.89,10,10,10,9,3,,0.00,0,,39
2013-9-8,78,71,64,68,65,64,100,85,65,30.05,29.99,29.91,10,10,4,13,8,18,0.00,5,,83
2013-9-9,93,80,66,73,70,64,100,76,44,29.90,29.77,29.67,10,8,2,16,8,22,0.00,2,Rain-Thunderstorm,173
2013-9-10,80,72,64,72,66,64,100,80,58,30.01,29.93,29.80,10,10,10,8,4,,0.00,2,Rain-Thunderstorm,237
2013-9-11,84,72,60,68,60,52,100,72,37,30.08,30.04,30.00,10,9,0,16,3,21,0.00,0,Fog-Rain,266
2013-9-12,73,63,53,54,51,46,94,67,41,30.23,30.18,30.08,10,10,10,16,7,23,0.00,1,,328
2013-9-13,68,54,39,48,45,39,100,73,43,30.29,30.21,30.12,10,10,7,7,1,,0.00,0,,133
2013-9-14,73,60,46,57,49,45,100,75,41,30.11,30.01,29.86,10,10,5,15,5,21,0.40,2,Rain,160
2013-9-15,64,56,48,57,55,48,100,93,73,30.32,30.08,29.88,10,10,3,14,8,20,0.61,6,Rain,20
2013-9-16,66,54,41,52,47,41,100,80,49,30.41,30.34,30.26,10,10,10,9,3,,0.00,1,,96
2013-9-17,64,55,46,59,52,45,100,88,68,30.27,30.13,29.96,10,8,2,18,8,25,0.00,5,Rain,144
2013-9-18,75,67,59,72,67,59,100,93,83,29.96,29.82,29.73,10,6,2,17,9,24,0.20,6,Rain-Thunderstorm,153
2013-9-19,78,71,62,70,67,59,100,89,73,29.83,29.75,29.68,10,10,2,16,8,38,0.35,2,Rain-Thunderstorm,222
2013-9-20,64,56,48,57,53,48,100,87,68,29.95,29.89,29.82,10,9,2,20,11,24,0.00,5,Rain,270
2013-9-21,64,54,44,52,47,45,100,83,56,30.00,29.96,29.92,10,10,10,13,4,20,0.00,0,,295
2013-9-22,75,58,42,55,51,43,100,76,50,29.98,29.93,29.87,10,10,10,18,6,23,0.00,0,,133
2013-9-23,73,63,53,54,52,48,88,72,47,29.97,29.93,29.88,10,10,10,22,11,29,0.00,0,,136
2013-9-24,75,62,50,55,52,48,94,74,47,29.97,29.95,29.92,10,10,10,14,6,12,0.00,0,,120
2013-9-25,73,58,42,55,51,43,100,77,50,29.99,29.94,29.88,10,9,2,14,4,17,0.00,0,,118
2013-9-26,80,68,55,63,57,52,94,70,51,29.94,29.90,29.85,10,10,10,24,13,29,0.00,0,,136
2013-9-27,84,75,66,64,62,61,83,69,45,29.94,29.89,29.83,10,10,10,24,14,34,0.00,0,,147
2013-9-28,71,58,44,64,56,45,100,86,69,29.98,29.82,29.69,10,9,2,24,13,37,0.13,4,Rain,193
2013-9-29,75,58,42,48,46,41,100,67,36,29.99,29.93,29.84,10,10,10,18,6,23,0.00,0,,169
2013-9-30,78,66,53,54,51,46,82,63,42,29.84,29.72,29.64,10,10,10,23,11,31,0.00,0,,167